sensor_id;sensor_type;location;lat;lon;timestamp;P1;durP1;ratioP1;P2;durP2;ratioP2
9801;SDS011;4940;50.900;4.672;2022-07-30T00:01:29;9.32;;;4.18;;
9801;SDS011;4940;50.900;4.672;2022-07-30T00:03:58;6.47;;;3.53;;
9801;SDS011;4940;50.900;4.672;2022-07-30T00:06:25;7.20;;;4.63;;
9801;SDS011;4940;50.900;4.672;2022-07-30T00:08:53;7.07;;;4.53;;
9801;SDS011;4940;50.900;4.672;2022-07-30T00:11:21;6.97;;;4.22;;
9801;SDS011;4940;50.900;4.672;2022-07-30T00:13:49;6.43;;;4.15;;
9801;SDS011;4940;50.900;4.672;2022-07-30T00:16:16;7.38;;;3.88;;
9801;SDS011;4940;50.900;4.672;2022-07-30T00:18:43;7.30;;;4.28;;
9801;SDS011;4940;50.900;4.672;2022-07-30T00:21:11;6.38;;;3.88;;
9801;SDS011;4940;50.900;4.672;2022-07-30T00:23:39;11.05;;;4.70;;
9801;SDS011;4940;50.900;4.672;2022-07-30T00:26:06;9.75;;;5.18;;
9801;SDS011;4940;50.900;4.672;2022-07-30T00:28:35;7.45;;;4.90;;
9801;SDS011;4940;50.900;4.672;2022-07-30T00:31:02;6.40;;;4.40;;
9801;SDS011;4940;50.900;4.672;2022-07-30T00:33:29;7.57;;;4.95;;
9801;SDS011;4940;50.900;4.672;2022-07-30T00:35:57;11.80;;;5.00;;
9801;SDS011;4940;50.900;4.672;2022-07-30T00:38:24;8.57;;;4.72;;
9801;SDS011;4940;50.900;4.672;2022-07-30T00:40:52;9.68;;;5.38;;
9801;SDS011;4940;50.900;4.672;2022-07-30T00:43:19;8.80;;;5.15;;
9801;SDS011;4940;50.900;4.672;2022-07-30T00:45:48;8.20;;;5.40;;
9801;SDS011;4940;50.900;4.672;2022-07-30T00:48:15;12.73;;;5.65;;
9801;SDS011;4940;50.900;4.672;2022-07-30T00:50:43;10.93;;;6.00;;
9801;SDS011;4940;50.900;4.672;2022-07-30T00:53:10;10.70;;;6.32;;
9801;SDS011;4940;50.900;4.672;2022-07-30T00:55:37;12.15;;;6.35;;
9801;SDS011;4940;50.900;4.672;2022-07-30T00:58:04;15.38;;;7.25;;
9801;SDS011;4940;50.900;4.672;2022-07-30T01:00:32;9.75;;;6.45;;
9801;SDS011;4940;50.900;4.672;2022-07-30T01:03:00;12.48;;;6.82;;
9801;SDS011;4940;50.900;4.672;2022-07-30T01:05:29;10.95;;;6.88;;
9801;SDS011;4940;50.900;4.672;2022-07-30T01:07:56;10.93;;;6.85;;
9801;SDS011;4940;50.900;4.672;2022-07-30T01:10:23;12.85;;;7.50;;
9801;SDS011;4940;50.900;4.672;2022-07-30T01:12:51;13.18;;;6.55;;
9801;SDS011;4940;50.900;4.672;2022-07-30T01:15:18;11.30;;;6.80;;
9801;SDS011;4940;50.900;4.672;2022-07-30T01:17:47;14.50;;;7.72;;
9801;SDS011;4940;50.900;4.672;2022-07-30T01:20:19;9.85;;;7.10;;
9801;SDS011;4940;50.900;4.672;2022-07-30T01:22:50;12.13;;;6.90;;
9801;SDS011;4940;50.900;4.672;2022-07-30T01:28:10;11.63;;;7.28;;
9801;SDS011;4940;50.900;4.672;2022-07-30T01:30:41;13.10;;;7.65;;
9801;SDS011;4940;50.900;4.672;2022-07-30T01:33:10;12.20;;;6.82;;
9801;SDS011;4940;50.900;4.672;2022-07-30T01:35:39;13.80;;;6.90;;
9801;SDS011;4940;50.900;4.672;2022-07-30T01:38:10;11.88;;;7.18;;
9801;SDS011;4940;50.900;4.672;2022-07-30T01:40:42;11.82;;;7.22;;
9801;SDS011;4940;50.900;4.672;2022-07-30T01:43:10;12.43;;;6.75;;
9801;SDS011;4940;50.900;4.672;2022-07-30T01:45:38;11.95;;;7.32;;
9801;SDS011;4940;50.900;4.672;2022-07-30T01:48:08;10.50;;;7.00;;
9801;SDS011;4940;50.900;4.672;2022-07-30T01:50:36;13.55;;;7.70;;
9801;SDS011;4940;50.900;4.672;2022-07-30T01:53:08;11.82;;;7.22;;
9801;SDS011;4940;50.900;4.672;2022-07-30T01:55:38;10.65;;;6.90;;
9801;SDS011;4940;50.900;4.672;2022-07-30T01:58:09;12.15;;;7.32;;
9801;SDS011;4940;50.900;4.672;2022-07-30T02:00:38;10.80;;;6.53;;
9801;SDS011;4940;50.900;4.672;2022-07-30T02:03:06;12.52;;;6.70;;
9801;SDS011;4940;50.900;4.672;2022-07-30T02:05:35;11.80;;;6.97;;
9801;SDS011;4940;50.900;4.672;2022-07-30T02:08:04;9.88;;;6.45;;
9801;SDS011;4940;50.900;4.672;2022-07-30T02:10:39;11.20;;;6.53;;
9801;SDS011;4940;50.900;4.672;2022-07-30T02:13:10;12.10;;;7.20;;
9801;SDS011;4940;50.900;4.672;2022-07-30T02:15:45;12.38;;;6.95;;
9801;SDS011;4940;50.900;4.672;2022-07-30T02:18:19;15.55;;;7.15;;
9801;SDS011;4940;50.900;4.672;2022-07-30T02:20:50;13.60;;;6.90;;
9801;SDS011;4940;50.900;4.672;2022-07-30T02:23:21;12.57;;;7.80;;
9801;SDS011;4940;50.900;4.672;2022-07-30T02:25:49;11.85;;;7.20;;
9801;SDS011;4940;50.900;4.672;2022-07-30T02:28:19;12.80;;;7.45;;
9801;SDS011;4940;50.900;4.672;2022-07-30T02:30:50;12.55;;;7.35;;
9801;SDS011;4940;50.900;4.672;2022-07-30T02:33:20;12.13;;;8.18;;
9801;SDS011;4940;50.900;4.672;2022-07-30T02:35:49;11.73;;;7.57;;
9801;SDS011;4940;50.900;4.672;2022-07-30T02:38:18;14.52;;;8.00;;
9801;SDS011;4940;50.900;4.672;2022-07-30T02:40:47;12.30;;;7.38;;
9801;SDS011;4940;50.900;4.672;2022-07-30T02:43:15;13.60;;;8.50;;
9801;SDS011;4940;50.900;4.672;2022-07-30T02:45:46;14.63;;;8.30;;
9801;SDS011;4940;50.900;4.672;2022-07-30T02:48:14;13.90;;;8.48;;
9801;SDS011;4940;50.900;4.672;2022-07-30T02:50:43;16.00;;;8.57;;
9801;SDS011;4940;50.900;4.672;2022-07-30T02:53:11;13.75;;;8.65;;
9801;SDS011;4940;50.900;4.672;2022-07-30T02:55:40;14.95;;;9.05;;
9801;SDS011;4940;50.900;4.672;2022-07-30T02:58:09;13.70;;;9.02;;
9801;SDS011;4940;50.900;4.672;2022-07-30T03:00:38;18.00;;;9.45;;
9801;SDS011;4940;50.900;4.672;2022-07-30T03:03:07;13.88;;;8.38;;
9801;SDS011;4940;50.900;4.672;2022-07-30T03:05:37;17.50;;;8.90;;
9801;SDS011;4940;50.900;4.672;2022-07-30T03:08:06;15.05;;;8.90;;
9801;SDS011;4940;50.900;4.672;2022-07-30T03:10:34;13.32;;;8.68;;
9801;SDS011;4940;50.900;4.672;2022-07-30T03:13:03;14.40;;;9.10;;
9801;SDS011;4940;50.900;4.672;2022-07-30T03:15:32;17.48;;;9.18;;
9801;SDS011;4940;50.900;4.672;2022-07-30T03:18:02;14.38;;;8.85;;
9801;SDS011;4940;50.900;4.672;2022-07-30T03:20:32;18.30;;;9.52;;
9801;SDS011;4940;50.900;4.672;2022-07-30T03:23:01;16.80;;;9.48;;
9801;SDS011;4940;50.900;4.672;2022-07-30T03:25:29;16.75;;;9.85;;
9801;SDS011;4940;50.900;4.672;2022-07-30T03:27:58;16.95;;;9.60;;
9801;SDS011;4940;50.900;4.672;2022-07-30T03:30:28;16.63;;;10.18;;
9801;SDS011;4940;50.900;4.672;2022-07-30T03:32:56;13.82;;;9.27;;
9801;SDS011;4940;50.900;4.672;2022-07-30T03:35:23;18.88;;;9.88;;
9801;SDS011;4940;50.900;4.672;2022-07-30T03:37:53;19.10;;;9.95;;
9801;SDS011;4940;50.900;4.672;2022-07-30T03:40:21;15.63;;;9.32;;
9801;SDS011;4940;50.900;4.672;2022-07-30T03:42:49;15.13;;;9.30;;
9801;SDS011;4940;50.900;4.672;2022-07-30T03:45:16;17.02;;;9.23;;
9801;SDS011;4940;50.900;4.672;2022-07-30T03:47:45;13.90;;;8.90;;
9801;SDS011;4940;50.900;4.672;2022-07-30T03:50:13;17.48;;;9.30;;
9801;SDS011;4940;50.900;4.672;2022-07-30T03:52:41;17.58;;;9.85;;
9801;SDS011;4940;50.900;4.672;2022-07-30T03:55:10;17.88;;;8.93;;
9801;SDS011;4940;50.900;4.672;2022-07-30T03:57:38;14.68;;;9.25;;
9801;SDS011;4940;50.900;4.672;2022-07-30T04:00:07;15.73;;;9.30;;
9801;SDS011;4940;50.900;4.672;2022-07-30T04:02:39;18.95;;;9.57;;
9801;SDS011;4940;50.900;4.672;2022-07-30T04:05:07;15.68;;;8.57;;
9801;SDS011;4940;50.900;4.672;2022-07-30T04:07:35;13.15;;;9.25;;
9801;SDS011;4940;50.900;4.672;2022-07-30T04:10:02;16.23;;;8.90;;
9801;SDS011;4940;50.900;4.672;2022-07-30T04:12:31;15.38;;;8.90;;
9801;SDS011;4940;50.900;4.672;2022-07-30T04:14:58;16.30;;;9.90;;
9801;SDS011;4940;50.900;4.672;2022-07-30T04:17:26;15.30;;;9.23;;
9801;SDS011;4940;50.900;4.672;2022-07-30T04:20:11;20.95;;;9.45;;
9801;SDS011;4940;50.900;4.672;2022-07-30T04:22:42;16.08;;;9.45;;
9801;SDS011;4940;50.900;4.672;2022-07-30T04:25:10;17.00;;;9.57;;
9801;SDS011;4940;50.900;4.672;2022-07-30T04:27:40;14.35;;;9.57;;
9801;SDS011;4940;50.900;4.672;2022-07-30T04:30:07;17.90;;;9.82;;
9801;SDS011;4940;50.900;4.672;2022-07-30T04:32:35;16.17;;;9.68;;
9801;SDS011;4940;50.900;4.672;2022-07-30T04:35:03;16.42;;;9.45;;
9801;SDS011;4940;50.900;4.672;2022-07-30T04:37:30;17.65;;;9.45;;
9801;SDS011;4940;50.900;4.672;2022-07-30T04:39:58;20.60;;;10.35;;
9801;SDS011;4940;50.900;4.672;2022-07-30T04:42:25;18.50;;;10.52;;
9801;SDS011;4940;50.900;4.672;2022-07-30T04:44:55;18.30;;;9.70;;
9801;SDS011;4940;50.900;4.672;2022-07-30T04:47:23;19.48;;;9.88;;
9801;SDS011;4940;50.900;4.672;2022-07-30T04:49:52;18.15;;;10.60;;
9801;SDS011;4940;50.900;4.672;2022-07-30T04:52:20;14.45;;;9.85;;
9801;SDS011;4940;50.900;4.672;2022-07-30T04:54:50;17.40;;;10.55;;
9801;SDS011;4940;50.900;4.672;2022-07-30T04:57:21;16.25;;;9.15;;
9801;SDS011;4940;50.900;4.672;2022-07-30T04:59:51;20.38;;;10.25;;
9801;SDS011;4940;50.900;4.672;2022-07-30T05:02:19;17.50;;;9.63;;
9801;SDS011;4940;50.900;4.672;2022-07-30T05:04:49;19.17;;;10.75;;
9801;SDS011;4940;50.900;4.672;2022-07-30T05:07:18;14.30;;;9.63;;
9801;SDS011;4940;50.900;4.672;2022-07-30T05:09:46;18.67;;;10.75;;
9801;SDS011;4940;50.900;4.672;2022-07-30T05:12:14;20.80;;;11.15;;
9801;SDS011;4940;50.900;4.672;2022-07-30T05:14:41;17.52;;;9.75;;
9801;SDS011;4940;50.900;4.672;2022-07-30T05:17:09;21.38;;;10.43;;
9801;SDS011;4940;50.900;4.672;2022-07-30T05:19:37;18.30;;;10.55;;
9801;SDS011;4940;50.900;4.672;2022-07-30T05:22:05;17.48;;;10.68;;
9801;SDS011;4940;50.900;4.672;2022-07-30T05:24:32;18.88;;;10.45;;
9801;SDS011;4940;50.900;4.672;2022-07-30T05:26:59;19.42;;;10.43;;
9801;SDS011;4940;50.900;4.672;2022-07-30T05:29:26;18.08;;;10.15;;
9801;SDS011;4940;50.900;4.672;2022-07-30T05:31:54;18.80;;;10.48;;
9801;SDS011;4940;50.900;4.672;2022-07-30T05:34:21;18.80;;;11.15;;
9801;SDS011;4940;50.900;4.672;2022-07-30T05:36:50;19.17;;;11.27;;
9801;SDS011;4940;50.900;4.672;2022-07-30T05:39:17;15.55;;;10.30;;
9801;SDS011;4940;50.900;4.672;2022-07-30T05:41:44;16.83;;;10.50;;
9801;SDS011;4940;50.900;4.672;2022-07-30T05:44:12;17.85;;;10.95;;
9801;SDS011;4940;50.900;4.672;2022-07-30T05:46:39;15.82;;;9.40;;
9801;SDS011;4940;50.900;4.672;2022-07-30T05:49:06;14.43;;;7.78;;
9801;SDS011;4940;50.900;4.672;2022-07-30T05:51:33;8.63;;;6.53;;
9801;SDS011;4940;50.900;4.672;2022-07-30T05:54:02;9.02;;;6.68;;
9801;SDS011;4940;50.900;4.672;2022-07-30T05:56:29;9.48;;;6.28;;
9801;SDS011;4940;50.900;4.672;2022-07-30T05:58:57;8.27;;;5.88;;
9801;SDS011;4940;50.900;4.672;2022-07-30T06:01:24;9.95;;;5.45;;
9801;SDS011;4940;50.900;4.672;2022-07-30T06:03:52;7.15;;;5.38;;
9801;SDS011;4940;50.900;4.672;2022-07-30T06:06:19;6.32;;;5.28;;
9801;SDS011;4940;50.900;4.672;2022-07-30T06:08:46;11.68;;;5.95;;
9801;SDS011;4940;50.900;4.672;2022-07-30T06:11:15;9.45;;;5.53;;
9801;SDS011;4940;50.900;4.672;2022-07-30T06:13:43;9.98;;;5.38;;
9801;SDS011;4940;50.900;4.672;2022-07-30T06:16:10;8.80;;;5.75;;
9801;SDS011;4940;50.900;4.672;2022-07-30T06:18:37;10.30;;;5.47;;
9801;SDS011;4940;50.900;4.672;2022-07-30T06:21:04;10.77;;;5.85;;
9801;SDS011;4940;50.900;4.672;2022-07-30T06:23:31;9.00;;;5.55;;
9801;SDS011;4940;50.900;4.672;2022-07-30T06:25:59;7.97;;;5.20;;
9801;SDS011;4940;50.900;4.672;2022-07-30T06:28:28;5.45;;;4.85;;
9801;SDS011;4940;50.900;4.672;2022-07-30T06:30:55;6.70;;;4.97;;
9801;SDS011;4940;50.900;4.672;2022-07-30T06:33:23;7.75;;;5.63;;
9801;SDS011;4940;50.900;4.672;2022-07-30T06:35:50;8.18;;;5.43;;
9801;SDS011;4940;50.900;4.672;2022-07-30T06:38:17;6.35;;;5.05;;
9801;SDS011;4940;50.900;4.672;2022-07-30T06:40:44;6.65;;;5.18;;
9801;SDS011;4940;50.900;4.672;2022-07-30T06:43:12;10.98;;;6.00;;
9801;SDS011;4940;50.900;4.672;2022-07-30T06:45:40;6.95;;;5.20;;
9801;SDS011;4940;50.900;4.672;2022-07-30T06:48:08;8.88;;;6.28;;
9801;SDS011;4940;50.900;4.672;2022-07-30T06:50:35;10.55;;;5.97;;
9801;SDS011;4940;50.900;4.672;2022-07-30T06:53:02;7.35;;;6.25;;
9801;SDS011;4940;50.900;4.672;2022-07-30T06:55:30;9.35;;;6.43;;
9801;SDS011;4940;50.900;4.672;2022-07-30T06:57:57;9.02;;;6.40;;
9801;SDS011;4940;50.900;4.672;2022-07-30T07:00:25;11.25;;;7.85;;
9801;SDS011;4940;50.900;4.672;2022-07-30T07:02:53;10.05;;;7.72;;
9801;SDS011;4940;50.900;4.672;2022-07-30T07:05:20;7.93;;;7.13;;
9801;SDS011;4940;50.900;4.672;2022-07-30T07:07:48;11.10;;;7.35;;
9801;SDS011;4940;50.900;4.672;2022-07-30T07:10:15;10.02;;;6.50;;
9801;SDS011;4940;50.900;4.672;2022-07-30T07:12:42;13.18;;;6.47;;
9801;SDS011;4940;50.900;4.672;2022-07-30T07:15:10;10.82;;;6.45;;
9801;SDS011;4940;50.900;4.672;2022-07-30T07:17:37;7.80;;;6.10;;
9801;SDS011;4940;50.900;4.672;2022-07-30T07:20:08;8.60;;;6.20;;
9801;SDS011;4940;50.900;4.672;2022-07-30T07:22:36;9.25;;;5.70;;
9801;SDS011;4940;50.900;4.672;2022-07-30T07:25:03;7.05;;;6.28;;
9801;SDS011;4940;50.900;4.672;2022-07-30T07:27:31;6.65;;;5.43;;
9801;SDS011;4940;50.900;4.672;2022-07-30T07:29:58;7.47;;;6.20;;
9801;SDS011;4940;50.900;4.672;2022-07-30T07:32:26;7.93;;;5.32;;
9801;SDS011;4940;50.900;4.672;2022-07-30T07:34:53;5.78;;;4.72;;
9801;SDS011;4940;50.900;4.672;2022-07-30T07:37:22;6.63;;;5.20;;
9801;SDS011;4940;50.900;4.672;2022-07-30T07:39:49;5.82;;;4.55;;
9801;SDS011;4940;50.900;4.672;2022-07-30T07:42:16;6.63;;;4.95;;
9801;SDS011;4940;50.900;4.672;2022-07-30T07:44:43;6.38;;;5.38;;
9801;SDS011;4940;50.900;4.672;2022-07-30T07:47:11;6.15;;;5.13;;
9801;SDS011;4940;50.900;4.672;2022-07-30T07:49:38;7.07;;;5.50;;
9801;SDS011;4940;50.900;4.672;2022-07-30T07:52:05;6.80;;;5.13;;
9801;SDS011;4940;50.900;4.672;2022-07-30T07:54:34;5.35;;;4.63;;
9801;SDS011;4940;50.900;4.672;2022-07-30T07:57:01;5.55;;;4.95;;
9801;SDS011;4940;50.900;4.672;2022-07-30T07:59:32;4.32;;;3.47;;
9801;SDS011;4940;50.900;4.672;2022-07-30T08:01:59;7.30;;;4.35;;
9801;SDS011;4940;50.900;4.672;2022-07-30T08:04:26;5.13;;;3.75;;
9801;SDS011;4940;50.900;4.672;2022-07-30T08:06:54;5.63;;;4.93;;
9801;SDS011;4940;50.900;4.672;2022-07-30T08:09:21;5.07;;;4.35;;
9801;SDS011;4940;50.900;4.672;2022-07-30T08:11:49;5.95;;;4.00;;
9801;SDS011;4940;50.900;4.672;2022-07-30T08:14:17;4.43;;;3.92;;
9801;SDS011;4940;50.900;4.672;2022-07-30T08:16:44;4.60;;;4.20;;
9801;SDS011;4940;50.900;4.672;2022-07-30T08:19:11;5.88;;;3.90;;
9801;SDS011;4940;50.900;4.672;2022-07-30T08:21:39;3.60;;;3.30;;
9801;SDS011;4940;50.900;4.672;2022-07-30T08:24:06;7.22;;;3.78;;
9801;SDS011;4940;50.900;4.672;2022-07-30T08:26:34;5.97;;;3.65;;
9801;SDS011;4940;50.900;4.672;2022-07-30T08:29:02;4.88;;;3.63;;
9801;SDS011;4940;50.900;4.672;2022-07-30T08:31:30;6.22;;;3.80;;
9801;SDS011;4940;50.900;4.672;2022-07-30T08:33:57;4.93;;;3.63;;
9801;SDS011;4940;50.900;4.672;2022-07-30T08:36:24;5.15;;;4.20;;
9801;SDS011;4940;50.900;4.672;2022-07-30T08:38:52;4.22;;;3.35;;
9801;SDS011;4940;50.900;4.672;2022-07-30T08:41:19;4.53;;;3.50;;
9801;SDS011;4940;50.900;4.672;2022-07-30T08:43:48;3.33;;;2.90;;
9801;SDS011;4940;50.900;4.672;2022-07-30T08:46:18;3.10;;;2.90;;
9801;SDS011;4940;50.900;4.672;2022-07-30T08:48:46;3.35;;;3.00;;
9801;SDS011;4940;50.900;4.672;2022-07-30T08:51:14;4.75;;;3.30;;
9801;SDS011;4940;50.900;4.672;2022-07-30T08:53:42;3.92;;;2.80;;
9801;SDS011;4940;50.900;4.672;2022-07-30T08:56:10;3.78;;;3.45;;
9801;SDS011;4940;50.900;4.672;2022-07-30T08:58:37;3.85;;;3.47;;
9801;SDS011;4940;50.900;4.672;2022-07-30T09:01:05;3.90;;;3.60;;
9801;SDS011;4940;50.900;4.672;2022-07-30T09:03:35;3.63;;;3.33;;
9801;SDS011;4940;50.900;4.672;2022-07-30T09:06:03;3.42;;;3.13;;
9801;SDS011;4940;50.900;4.672;2022-07-30T09:08:31;3.95;;;3.53;;
9801;SDS011;4940;50.900;4.672;2022-07-30T09:10:58;4.38;;;3.97;;
9801;SDS011;4940;50.900;4.672;2022-07-30T09:13:26;3.65;;;3.35;;
9801;SDS011;4940;50.900;4.672;2022-07-30T09:15:55;3.47;;;3.17;;
9801;SDS011;4940;50.900;4.672;2022-07-30T09:18:26;3.67;;;3.38;;
9801;SDS011;4940;50.900;4.672;2022-07-30T09:20:56;3.08;;;2.88;;
9801;SDS011;4940;50.900;4.672;2022-07-30T09:23:25;3.60;;;3.30;;
9801;SDS011;4940;50.900;4.672;2022-07-30T09:25:52;3.63;;;3.33;;
9801;SDS011;4940;50.900;4.672;2022-07-30T09:28:26;4.40;;;4.00;;
9801;SDS011;4940;50.900;4.672;2022-07-30T09:30:55;3.13;;;2.92;;
9801;SDS011;4940;50.900;4.672;2022-07-30T09:33:33;3.50;;;3.20;;
9801;SDS011;4940;50.900;4.672;2022-07-30T09:36:03;4.00;;;3.67;;
9801;SDS011;4940;50.900;4.672;2022-07-30T09:38:42;3.72;;;3.13;;
9801;SDS011;4940;50.900;4.672;2022-07-30T09:41:10;3.15;;;2.95;;
9801;SDS011;4940;50.900;4.672;2022-07-30T09:43:41;3.65;;;3.35;;
9801;SDS011;4940;50.900;4.672;2022-07-30T09:46:10;3.90;;;3.60;;
9801;SDS011;4940;50.900;4.672;2022-07-30T09:48:38;3.83;;;3.53;;
9801;SDS011;4940;50.900;4.672;2022-07-30T09:51:06;3.53;;;3.22;;
9801;SDS011;4940;50.900;4.672;2022-07-30T09:53:34;3.40;;;3.15;;
9801;SDS011;4940;50.900;4.672;2022-07-30T09:56:21;3.33;;;3.00;;
9801;SDS011;4940;50.900;4.672;2022-07-30T09:58:50;3.45;;;3.20;;
9801;SDS011;4940;50.900;4.672;2022-07-30T10:01:17;4.20;;;2.95;;
9801;SDS011;4940;50.900;4.672;2022-07-30T10:03:45;2.97;;;2.78;;
9801;SDS011;4940;50.900;4.672;2022-07-30T10:06:13;2.83;;;2.63;;
9801;SDS011;4940;50.900;4.672;2022-07-30T10:08:41;4.53;;;3.10;;
9801;SDS011;4940;50.900;4.672;2022-07-30T10:11:09;2.92;;;2.72;;
9801;SDS011;4940;50.900;4.672;2022-07-30T10:13:38;3.88;;;3.22;;
9801;SDS011;4940;50.900;4.672;2022-07-30T10:16:06;3.40;;;3.15;;
9801;SDS011;4940;50.900;4.672;2022-07-30T10:18:34;3.45;;;3.25;;
9801;SDS011;4940;50.900;4.672;2022-07-30T10:21:01;3.08;;;2.88;;
9801;SDS011;4940;50.900;4.672;2022-07-30T10:23:30;3.38;;;3.17;;
9801;SDS011;4940;50.900;4.672;2022-07-30T10:26:00;3.65;;;3.38;;
9801;SDS011;4940;50.900;4.672;2022-07-30T10:28:28;4.28;;;3.05;;
9801;SDS011;4940;50.900;4.672;2022-07-30T10:30:57;4.45;;;2.90;;
9801;SDS011;4940;50.900;4.672;2022-07-30T10:33:25;6.68;;;3.15;;
9801;SDS011;4940;50.900;4.672;2022-07-30T10:35:55;3.58;;;3.10;;
9801;SDS011;4940;50.900;4.672;2022-07-30T10:38:25;2.92;;;2.72;;
9801;SDS011;4940;50.900;4.672;2022-07-30T10:40:59;3.53;;;3.20;;
9801;SDS011;4940;50.900;4.672;2022-07-30T10:43:44;3.85;;;3.13;;
9801;SDS011;4940;50.900;4.672;2022-07-30T10:46:32;3.45;;;3.13;;
9801;SDS011;4940;50.900;4.672;2022-07-30T10:49:09;3.65;;;3.33;;
9801;SDS011;4940;50.900;4.672;2022-07-30T10:51:43;3.50;;;3.20;;
9801;SDS011;4940;50.900;4.672;2022-07-30T10:57:08;3.50;;;3.20;;
9801;SDS011;4940;50.900;4.672;2022-07-30T11:02:37;3.17;;;2.97;;
9801;SDS011;4940;50.900;4.672;2022-07-30T11:07:47;3.60;;;3.30;;
9801;SDS011;4940;50.900;4.672;2022-07-30T11:13:01;3.78;;;3.47;;
9801;SDS011;4940;50.900;4.672;2022-07-30T11:18:20;3.40;;;3.20;;
9801;SDS011;4940;50.900;4.672;2022-07-30T11:23:42;3.60;;;3.28;;
9801;SDS011;4940;50.900;4.672;2022-07-30T11:26:11;3.28;;;3.05;;
9801;SDS011;4940;50.900;4.672;2022-07-30T11:29:31;3.50;;;3.30;;
9801;SDS011;4940;50.900;4.672;2022-07-30T11:34:49;3.90;;;3.60;;
9801;SDS011;4940;50.900;4.672;2022-07-30T11:37:17;4.03;;;3.72;;
9801;SDS011;4940;50.900;4.672;2022-07-30T11:42:39;3.50;;;3.20;;
9801;SDS011;4940;50.900;4.672;2022-07-30T11:47:54;3.25;;;3.00;;
9801;SDS011;4940;50.900;4.672;2022-07-30T11:50:24;6.40;;;3.00;;
9801;SDS011;4940;50.900;4.672;2022-07-30T11:52:53;5.75;;;2.80;;
9801;SDS011;4940;50.900;4.672;2022-07-30T11:55:23;3.50;;;3.20;;
9801;SDS011;4940;50.900;4.672;2022-07-30T11:57:53;3.45;;;2.95;;
9801;SDS011;4940;50.900;4.672;2022-07-30T12:00:21;3.03;;;2.70;;
9801;SDS011;4940;50.900;4.672;2022-07-30T12:02:49;3.33;;;3.03;;
9801;SDS011;4940;50.900;4.672;2022-07-30T12:05:21;3.42;;;3.13;;
9801;SDS011;4940;50.900;4.672;2022-07-30T12:07:50;2.75;;;2.55;;
9801;SDS011;4940;50.900;4.672;2022-07-30T12:10:21;3.35;;;2.72;;
9801;SDS011;4940;50.900;4.672;2022-07-30T12:12:48;3.58;;;3.20;;
9801;SDS011;4940;50.900;4.672;2022-07-30T12:15:30;3.03;;;2.65;;
9801;SDS011;4940;50.900;4.672;2022-07-30T12:17:59;3.90;;;2.60;;
9801;SDS011;4940;50.900;4.672;2022-07-30T12:20:26;3.35;;;2.85;;
9801;SDS011;4940;50.900;4.672;2022-07-30T12:22:54;2.72;;;2.53;;
9801;SDS011;4940;50.900;4.672;2022-07-30T12:25:22;3.00;;;2.80;;
9801;SDS011;4940;50.900;4.672;2022-07-30T12:27:49;3.25;;;3.03;;
9801;SDS011;4940;50.900;4.672;2022-07-30T12:30:17;3.67;;;2.50;;
9801;SDS011;4940;50.900;4.672;2022-07-30T12:32:46;3.53;;;2.70;;
9801;SDS011;4940;50.900;4.672;2022-07-30T12:35:13;2.78;;;2.58;;
9801;SDS011;4940;50.900;4.672;2022-07-30T12:37:40;4.25;;;2.65;;
9801;SDS011;4940;50.900;4.672;2022-07-30T12:40:28;2.60;;;2.40;;
9801;SDS011;4940;50.900;4.672;2022-07-30T12:42:55;2.88;;;2.60;;
9801;SDS011;4940;50.900;4.672;2022-07-30T12:45:26;2.67;;;2.47;;
9801;SDS011;4940;50.900;4.672;2022-07-30T12:47:57;3.45;;;2.92;;
9801;SDS011;4940;50.900;4.672;2022-07-30T12:50:25;3.00;;;2.80;;
9801;SDS011;4940;50.900;4.672;2022-07-30T12:52:53;3.10;;;2.80;;
9801;SDS011;4940;50.900;4.672;2022-07-30T12:55:27;3.20;;;3.00;;
9801;SDS011;4940;50.900;4.672;2022-07-30T12:57:57;3.35;;;2.42;;
9801;SDS011;4940;50.900;4.672;2022-07-30T13:00:27;2.70;;;2.50;;
9801;SDS011;4940;50.900;4.672;2022-07-30T13:02:56;4.93;;;2.80;;
9801;SDS011;4940;50.900;4.672;2022-07-30T13:05:43;5.00;;;2.58;;
9801;SDS011;4940;50.900;4.672;2022-07-30T13:08:11;3.45;;;2.20;;
9801;SDS011;4940;50.900;4.672;2022-07-30T13:10:52;3.53;;;2.47;;
9801;SDS011;4940;50.900;4.672;2022-07-30T13:13:20;3.05;;;2.75;;
9801;SDS011;4940;50.900;4.672;2022-07-30T13:15:55;2.83;;;2.40;;
9801;SDS011;4940;50.900;4.672;2022-07-30T13:18:25;3.50;;;2.35;;
9801;SDS011;4940;50.900;4.672;2022-07-30T13:20:53;3.10;;;2.80;;
9801;SDS011;4940;50.900;4.672;2022-07-30T13:23:20;3.10;;;2.45;;
9801;SDS011;4940;50.900;4.672;2022-07-30T13:25:48;2.95;;;2.65;;
9801;SDS011;4940;50.900;4.672;2022-07-30T13:28:16;2.85;;;2.63;;
9801;SDS011;4940;50.900;4.672;2022-07-30T13:30:43;3.70;;;2.97;;
9801;SDS011;4940;50.900;4.672;2022-07-30T13:33:11;5.63;;;2.70;;
9801;SDS011;4940;50.900;4.672;2022-07-30T13:35:40;2.42;;;2.22;;
9801;SDS011;4940;50.900;4.672;2022-07-30T13:38:08;3.13;;;2.83;;
9801;SDS011;4940;50.900;4.672;2022-07-30T13:40:35;4.05;;;2.33;;
9801;SDS011;4940;50.900;4.672;2022-07-30T13:43:03;4.35;;;2.63;;
9801;SDS011;4940;50.900;4.672;2022-07-30T13:45:30;2.67;;;2.47;;
9801;SDS011;4940;50.900;4.672;2022-07-30T13:47:58;4.40;;;2.67;;
9801;SDS011;4940;50.900;4.672;2022-07-30T13:50:25;3.45;;;2.80;;
9801;SDS011;4940;50.900;4.672;2022-07-30T13:52:54;3.03;;;2.78;;
9801;SDS011;4940;50.900;4.672;2022-07-30T13:55:21;5.93;;;2.30;;
9801;SDS011;4940;50.900;4.672;2022-07-30T13:57:48;3.22;;;2.90;;
9801;SDS011;4940;50.900;4.672;2022-07-30T14:00:16;3.15;;;2.85;;
9801;SDS011;4940;50.900;4.672;2022-07-30T14:02:43;2.60;;;2.40;;
9801;SDS011;4940;50.900;4.672;2022-07-30T14:05:11;2.80;;;2.60;;
9801;SDS011;4940;50.900;4.672;2022-07-30T14:07:38;2.63;;;2.42;;
9801;SDS011;4940;50.900;4.672;2022-07-30T14:10:07;4.50;;;2.38;;
9801;SDS011;4940;50.900;4.672;2022-07-30T14:12:35;6.05;;;2.65;;
9801;SDS011;4940;50.900;4.672;2022-07-30T14:15:04;2.88;;;2.65;;
9801;SDS011;4940;50.900;4.672;2022-07-30T14:17:33;5.13;;;2.75;;
9801;SDS011;4940;50.900;4.672;2022-07-30T14:20:00;3.80;;;2.30;;
9801;SDS011;4940;50.900;4.672;2022-07-30T14:22:28;3.78;;;2.60;;
9801;SDS011;4940;50.900;4.672;2022-07-30T14:24:55;4.25;;;2.67;;
9801;SDS011;4940;50.900;4.672;2022-07-30T14:27:25;3.95;;;2.50;;
9801;SDS011;4940;50.900;4.672;2022-07-30T14:29:53;2.58;;;2.38;;
9801;SDS011;4940;50.900;4.672;2022-07-30T14:32:20;2.78;;;2.50;;
9801;SDS011;4940;50.900;4.672;2022-07-30T14:34:47;2.88;;;2.40;;
9801;SDS011;4940;50.900;4.672;2022-07-30T14:37:14;3.40;;;2.30;;
9801;SDS011;4940;50.900;4.672;2022-07-30T14:39:42;3.20;;;2.42;;
9801;SDS011;4940;50.900;4.672;2022-07-30T14:42:09;2.67;;;2.47;;
9801;SDS011;4940;50.900;4.672;2022-07-30T14:44:38;3.67;;;2.60;;
9801;SDS011;4940;50.900;4.672;2022-07-30T14:47:05;4.97;;;2.60;;
9801;SDS011;4940;50.900;4.672;2022-07-30T14:49:33;2.72;;;2.53;;
9801;SDS011;4940;50.900;4.672;2022-07-30T14:52:00;3.00;;;2.50;;
9801;SDS011;4940;50.900;4.672;2022-07-30T14:54:27;2.70;;;2.30;;
9801;SDS011;4940;50.900;4.672;2022-07-30T14:56:55;5.78;;;2.80;;
9801;SDS011;4940;50.900;4.672;2022-07-30T14:59:23;3.53;;;2.50;;
9801;SDS011;4940;50.900;4.672;2022-07-30T15:01:52;3.30;;;2.40;;
9801;SDS011;4940;50.900;4.672;2022-07-30T15:04:19;4.60;;;2.78;;
9801;SDS011;4940;50.900;4.672;2022-07-30T15:06:47;2.50;;;2.30;;
9801;SDS011;4940;50.900;4.672;2022-07-30T15:09:14;4.65;;;2.90;;
9801;SDS011;4940;50.900;4.672;2022-07-30T15:11:41;4.25;;;2.78;;
9801;SDS011;4940;50.900;4.672;2022-07-30T15:14:09;3.25;;;2.30;;
9801;SDS011;4940;50.900;4.672;2022-07-30T15:16:36;3.53;;;2.28;;
9801;SDS011;4940;50.900;4.672;2022-07-30T15:19:04;2.70;;;2.25;;
9801;SDS011;4940;50.900;4.672;2022-07-30T15:21:32;3.75;;;2.40;;
9801;SDS011;4940;50.900;4.672;2022-07-30T15:24:00;2.92;;;2.33;;
9801;SDS011;4940;50.900;4.672;2022-07-30T15:26:27;2.17;;;1.92;;
9801;SDS011;4940;50.900;4.672;2022-07-30T15:28:54;2.60;;;2.40;;
9801;SDS011;4940;50.900;4.672;2022-07-30T15:31:22;3.00;;;2.70;;
9801;SDS011;4940;50.900;4.672;2022-07-30T15:33:49;2.72;;;2.30;;
9801;SDS011;4940;50.900;4.672;2022-07-30T15:36:18;4.25;;;2.50;;
9801;SDS011;4940;50.900;4.672;2022-07-30T15:38:45;3.90;;;2.55;;
9801;SDS011;4940;50.900;4.672;2022-07-30T15:41:12;2.13;;;2.03;;
9801;SDS011;4940;50.900;4.672;2022-07-30T15:43:40;3.10;;;2.30;;
9801;SDS011;4940;50.900;4.672;2022-07-30T15:46:07;2.00;;;1.90;;
9801;SDS011;4940;50.900;4.672;2022-07-30T15:48:34;2.35;;;2.25;;